createdAt,value
2023-04-19T00:00:16.092Z,100341.64
2023-04-19T00:00:38.699Z,100337.96
2023-04-19T00:01:01.204Z,100341.17
2023-04-19T00:01:24.107Z,100339.11
2023-04-19T00:01:45.773Z,100337.05
2023-04-19T00:02:08.315Z,100335.64
2023-04-19T00:02:30.825Z,100335.86
2023-04-19T00:02:53.826Z,100332.67
2023-04-19T00:03:16.767Z,100329.70
2023-04-19T00:03:39.000Z,100329.75
2023-04-19T00:04:00.921Z,100331.45
2023-04-19T00:04:23.655Z,100329.02
2023-04-19T00:04:47.011Z,100330.22
2023-04-19T00:05:11.243Z,100327.77
2023-04-19T00:05:33.449Z,100328.73
2023-04-19T00:05:58.235Z,100327.32
2023-04-19T00:06:20.544Z,100328.20
2023-04-19T00:06:46.988Z,100328.89
2023-04-19T00:07:08.666Z,100329.16
2023-04-19T00:07:30.766Z,100326.17
2023-04-19T00:07:52.441Z,100328.39
2023-04-19T00:08:14.169Z,100325.59
2023-04-19T00:08:36.008Z,100323.20
2023-04-19T00:08:57.704Z,100324.86
2023-04-19T00:09:19.377Z,100324.84
2023-04-19T00:10:06.557Z,100321.95
2023-04-19T00:10:28.622Z,100323.08
2023-04-19T00:10:50.298Z,100324.56
2023-04-19T00:11:11.982Z,100324.40
2023-04-19T00:11:33.869Z,100322.02
2023-04-19T00:11:55.653Z,100324.96
2023-04-19T00:12:17.426Z,100321.88
2023-04-19T00:12:39.222Z,100320.98
2023-04-19T00:13:01.210Z,100320.00
2023-04-19T00:13:23.101Z,100323.27
2023-04-19T00:13:44.917Z,100322.34
2023-04-19T00:14:06.664Z,100325.46
2023-04-19T00:14:28.359Z,100322.38
2023-04-19T00:14:49.994Z,100320.16
2023-04-19T00:15:11.815Z,100323.41
2023-04-19T00:15:34.618Z,100322.75
2023-04-19T00:15:56.408Z,100320.89
2023-04-19T00:16:18.109Z,100317.99
2023-04-19T00:16:39.937Z,100320.88
2023-04-19T00:17:01.689Z,100321.65
2023-04-19T00:17:23.691Z,100316.46
2023-04-19T00:17:45.897Z,100319.11
2023-04-19T00:18:07.714Z,100317.63
2023-04-19T00:18:30.236Z,100318.42
2023-04-19T00:18:52.021Z,100320.24
2023-04-19T00:19:13.693Z,100317.99
2023-04-19T00:19:35.376Z,100317.33
2023-04-19T00:19:57.570Z,100319.31
2023-04-19T00:20:20.278Z,100317.93
2023-04-19T00:20:42.364Z,100317.96
2023-04-19T00:21:04.434Z,100316.67
2023-04-19T00:21:26.757Z,100320.58
2023-04-19T00:21:48.743Z,100315.17
2023-04-19T00:22:10.733Z,100316.45
2023-04-19T00:22:32.514Z,100319.42
2023-04-19T00:22:54.302Z,100318.92
2023-04-19T00:23:16.083Z,100322.11
2023-04-19T00:23:37.973Z,100320.39
2023-04-19T00:24:01.390Z,100319.21
2023-04-19T00:24:23.213Z,100321.64
2023-04-19T00:24:45.074Z,100319.11
2023-04-19T00:25:07.053Z,100320.48
2023-04-19T00:25:30.415Z,100321.55
2023-04-19T00:25:52.255Z,100320.48
2023-04-19T00:26:15.372Z,100320.35
2023-04-19T00:26:37.972Z,100322.51
2023-04-19T00:27:00.065Z,100321.17
2023-04-19T00:27:21.960Z,100319.31
2023-04-19T00:27:43.632Z,100320.02
2023-04-19T00:28:05.422Z,100321.45
2023-04-19T00:28:27.416Z,100319.54
2023-04-19T00:28:49.055Z,100318.45
2023-04-19T00:29:10.770Z,100320.08
2023-04-19T00:29:33.688Z,100319.59
2023-04-19T00:29:56.900Z,100319.13
2023-04-19T00:30:20.010Z,100318.46
2023-04-19T00:30:42.142Z,100319.56
2023-04-19T00:31:05.637Z,100318.60
2023-04-19T00:31:28.315Z,100320.55
2023-04-19T00:31:50.116Z,100319.20
2023-04-19T00:32:11.792Z,100313.58
2023-04-19T00:32:33.637Z,100314.34
2023-04-19T00:32:55.355Z,100316.23
2023-04-19T00:33:20.058Z,100314.21
2023-04-19T00:33:43.706Z,100317.63
2023-04-19T00:34:06.042Z,100315.88
2023-04-19T00:34:27.717Z,100314.52
2023-04-19T00:34:50.427Z,100315.84
2023-04-19T00:35:12.209Z,100317.20
2023-04-19T00:35:33.793Z,100318.13
2023-04-19T00:35:55.470Z,100315.38
2023-04-19T00:36:17.086Z,100316.77
2023-04-19T00:36:41.903Z,100316.99
2023-04-19T00:37:04.760Z,100316.91
2023-04-19T00:37:27.727Z,100318.49
2023-04-19T00:37:49.507Z,100317.41
2023-04-19T00:38:11.140Z,100316.44
2023-04-19T00:38:32.773Z,100314.61
2023-04-19T00:38:54.563Z,100313.95
2023-04-19T00:39:16.341Z,100311.02
2023-04-19T00:39:38.302Z,100310.56
2023-04-19T00:40:00.569Z,100307.27
2023-04-19T00:40:22.405Z,100311.92
2023-04-19T00:40:44.299Z,100308.27
2023-04-19T00:41:06.188Z,100306.73
2023-04-19T00:41:28.342Z,100307.31
2023-04-19T00:41:50.161Z,100306.05
2023-04-19T00:42:13.624Z,100304.15
2023-04-19T00:42:35.673Z,100306.50
2023-04-19T00:42:57.556Z,100303.02
2023-04-19T00:43:19.257Z,100304.22
2023-04-19T00:43:40.923Z,100302.56
2023-04-19T00:44:27.664Z,100297.97
2023-04-19T00:44:49.886Z,100297.38
2023-04-19T00:45:11.489Z,100298.75
2023-04-19T00:45:33.328Z,100297.61
2023-04-19T00:45:55.194Z,100295.32
2023-04-19T00:46:17.292Z,100296.13
2023-04-19T00:47:52.095Z,100291.73
2023-04-19T00:48:14.099Z,100293.86
2023-04-19T00:48:35.725Z,100295.02
2023-04-19T00:48:57.467Z,100296.31
2023-04-19T00:49:19.629Z,100295.06
2023-04-19T00:49:41.239Z,100299.01
2023-04-19T00:50:03.431Z,100297.17
2023-04-19T00:50:25.561Z,100296.01
2023-04-19T00:50:47.624Z,100295.76
2023-04-19T00:51:10.218Z,100296.05
2023-04-19T00:51:32.144Z,100292.40
2023-04-19T00:51:53.782Z,100293.69
2023-04-19T00:52:15.464Z,100296.67
2023-04-19T00:52:37.256Z,100294.06
2023-04-19T00:52:58.932Z,100296.25
2023-04-19T00:53:20.757Z,100293.09
2023-04-19T00:53:42.397Z,100294.92
2023-04-19T00:54:04.190Z,100292.83
2023-04-19T00:54:25.968Z,100294.83
2023-04-19T00:54:48.059Z,100294.10
2023-04-19T00:55:09.743Z,100294.39
2023-04-19T00:55:31.729Z,100297.75
2023-04-19T00:55:53.850Z,100293.27
2023-04-19T00:56:15.671Z,100294.19
2023-04-19T00:56:37.290Z,100294.80
2023-04-19T00:56:59.073Z,100295.33
2023-04-19T00:57:21.169Z,100295.16
2023-04-19T00:57:45.300Z,100293.93
2023-04-19T00:58:07.907Z,100293.77
2023-04-19T00:58:31.019Z,100295.75
2023-04-19T00:58:56.118Z,100293.83
2023-04-19T00:59:17.857Z,100294.42
2023-04-19T00:59:39.851Z,100293.79
2023-04-19T01:00:05.625Z,100295.92
2023-04-19T01:00:28.437Z,100295.45
2023-04-19T01:00:50.157Z,100294.76
2023-04-19T01:01:12.862Z,100295.19
2023-04-19T01:01:34.812Z,100293.33
2023-04-19T01:01:56.792Z,100295.45
2023-04-19T01:02:18.649Z,100293.16
2023-04-19T01:02:40.611Z,100295.65
2023-04-19T01:03:03.495Z,100293.79
2023-04-19T01:03:29.020Z,100295.73
2023-04-19T01:03:50.868Z,100291.88
2023-04-19T01:04:15.944Z,100293.85
2023-04-19T01:04:38.184Z,100291.94
2023-04-19T01:05:01.232Z,100292.96
2023-04-19T01:05:22.988Z,100296.91
2023-04-19T01:05:45.756Z,100294.26
2023-04-19T01:06:08.086Z,100292.00
2023-04-19T01:06:29.987Z,100291.15
2023-04-19T01:06:51.963Z,100292.59
2023-04-19T01:07:13.964Z,100296.71
2023-04-19T01:07:37.882Z,100293.20
2023-04-19T01:08:00.468Z,100289.92
2023-04-19T01:08:22.474Z,100292.63
2023-04-19T01:08:44.496Z,100293.85
2023-04-19T01:09:06.450Z,100294.21
2023-04-19T01:09:28.233Z,100293.27
2023-04-19T01:09:50.121Z,100294.09
2023-04-19T01:10:11.959Z,100291.31
2023-04-19T01:10:33.903Z,100293.43
2023-04-19T01:10:55.676Z,100292.17
2023-04-19T01:11:17.328Z,100294.96
2023-04-19T01:11:41.859Z,100292.33
2023-04-19T01:12:05.128Z,100289.27
2023-04-19T01:12:27.766Z,100291.48
2023-04-19T01:12:49.612Z,100290.37
2023-04-19T01:13:11.397Z,100287.11
2023-04-19T01:13:33.899Z,100286.69
2023-04-19T01:13:55.790Z,100289.28
2023-04-19T01:14:43.748Z,100286.59
2023-04-19T01:15:06.045Z,100286.11
2023-04-19T01:15:27.731Z,100286.33
2023-04-19T01:15:50.996Z,100285.66
2023-04-19T01:16:15.797Z,100287.12
2023-04-19T01:16:38.613Z,100284.38
2023-04-19T01:17:00.289Z,100286.73
2023-04-19T01:17:22.401Z,100286.09
2023-04-19T01:17:44.263Z,100282.80
2023-04-19T01:18:06.195Z,100285.10
2023-04-19T01:18:32.333Z,100285.34
2023-04-19T01:18:54.226Z,100288.45
2023-04-19T01:19:16.209Z,100288.48
2023-04-19T01:19:38.097Z,100291.17
2023-04-19T01:20:00.300Z,100291.98
2023-04-19T01:20:22.383Z,100290.41
2023-04-19T01:20:44.091Z,100290.01
2023-04-19T01:21:06.442Z,100292.86
2023-04-19T01:21:30.043Z,100288.31
2023-04-19T01:21:52.216Z,100289.15
2023-04-19T01:22:23.423Z,100287.78
2023-04-19T01:22:45.060Z,100289.61
2023-04-19T01:23:10.777Z,100287.79
2023-04-19T01:23:32.513Z,100286.91
2023-04-19T01:23:54.295Z,100288.17
2023-04-19T01:24:17.788Z,100284.27
2023-04-19T01:24:39.501Z,100283.61
2023-04-19T01:25:01.372Z,100285.01
2023-04-19T01:25:23.582Z,100283.08
2023-04-19T01:25:45.772Z,100283.67
2023-04-19T01:26:07.763Z,100282.81
2023-04-19T01:26:30.365Z,100280.02
2023-04-19T01:26:52.019Z,100279.69
2023-04-19T01:27:13.834Z,100280.39
2023-04-19T01:27:35.618Z,100276.02
2023-04-19T01:27:57.403Z,100277.77
2023-04-19T01:28:18.984Z,100278.13
2023-04-19T01:28:40.766Z,100276.44
2023-04-19T01:29:04.203Z,100275.80
2023-04-19T01:29:26.277Z,100272.38
2023-04-19T01:29:47.962Z,100272.52
2023-04-19T01:30:09.964Z,100273.95
2023-04-19T01:30:32.245Z,100271.71
2023-04-19T01:30:54.375Z,100271.14
2023-04-19T01:31:16.372Z,100270.52
2023-04-19T01:31:38.384Z,100273.44
2023-04-19T01:32:28.415Z,100270.35
2023-04-19T01:32:51.253Z,100268.52
2023-04-19T01:33:13.121Z,100268.63
2023-04-19T01:33:35.019Z,100268.91
2023-04-19T01:33:56.792Z,100268.13
2023-04-19T01:34:47.010Z,100270.16
2023-04-19T01:35:10.663Z,100270.05
2023-04-19T01:35:32.323Z,100265.38
2023-04-19T01:35:54.001Z,100263.29
2023-04-19T01:36:15.833Z,100264.95
2023-04-19T01:36:37.567Z,100264.29
2023-04-19T01:36:59.197Z,100263.09
2023-04-19T01:37:20.932Z,100265.81
2023-04-19T01:37:42.921Z,100261.33
2023-04-19T01:38:05.326Z,100261.20
2023-04-19T01:38:27.513Z,100260.06
2023-04-19T01:38:49.253Z,100263.52
2023-04-19T01:39:11.293Z,100263.24
2023-04-19T01:39:35.017Z,100263.69
2023-04-19T01:39:56.638Z,100263.45
2023-04-19T01:40:18.565Z,100263.29
2023-04-19T01:40:40.595Z,100263.48
2023-04-19T01:41:02.456Z,100262.79
2023-04-19T01:41:26.501Z,100264.65
2023-04-19T01:41:48.279Z,100263.69
2023-04-19T01:42:10.385Z,100259.98
2023-04-19T01:42:32.461Z,100264.21
2023-04-19T01:42:55.474Z,100266.24
2023-04-19T01:43:17.185Z,100266.27
2023-04-19T01:43:38.874Z,100266.08
2023-04-19T01:44:00.527Z,100264.98
2023-04-19T01:44:22.317Z,100264.23
2023-04-19T01:44:44.099Z,100265.61
2023-04-19T01:45:06.184Z,100264.19
2023-04-19T01:45:28.273Z,100261.54
2023-04-19T01:45:49.949Z,100264.79
2023-04-19T01:46:11.947Z,100263.02
2023-04-19T01:46:33.763Z,100263.33
2023-04-19T01:47:21.183Z,100264.95
2023-04-19T01:47:43.008Z,100265.98
2023-04-19T01:48:05.188Z,100266.18
2023-04-19T01:48:29.301Z,100264.28
2023-04-19T01:48:50.980Z,100267.61
2023-04-19T01:49:12.662Z,100268.55
2023-04-19T01:49:34.550Z,100267.93
2023-04-19T01:49:56.335Z,100266.41
2023-04-19T01:50:18.000Z,100268.77
2023-04-19T01:50:39.705Z,100268.33
2023-04-19T01:51:01.226Z,100269.92
2023-04-19T01:51:23.274Z,100271.99
2023-04-19T01:52:09.827Z,100266.94
2023-04-19T01:52:31.486Z,100269.02
2023-04-19T01:52:53.064Z,100268.77
2023-04-19T01:53:14.855Z,100269.39
2023-04-19T01:53:36.481Z,100269.19
2023-04-19T01:53:58.829Z,100267.94
2023-04-19T01:54:20.626Z,100267.27
2023-04-19T01:54:44.613Z,100269.45
2023-04-19T01:55:06.840Z,100265.52
2023-04-19T01:55:29.340Z,100264.85
2023-04-19T01:55:51.226Z,100265.95
2023-04-19T01:56:13.829Z,100262.33
2023-04-19T01:56:35.722Z,100264.81
2023-04-19T01:56:57.942Z,100261.88
2023-04-19T01:57:20.419Z,100264.78
2023-04-19T01:57:42.400Z,100264.31
2023-04-19T01:58:04.080Z,100265.90
2023-04-19T01:58:25.763Z,100263.59
2023-04-19T01:58:47.548Z,100264.24
2023-04-19T01:59:09.361Z,100261.31
2023-04-19T01:59:30.964Z,100259.80
2023-04-19T01:59:53.117Z,100258.29
2023-04-19T02:00:14.886Z,100260.20
2023-04-19T02:00:36.679Z,100258.70
2023-04-19T02:00:59.641Z,100259.04
2023-04-19T02:01:21.774Z,100258.01
2023-04-19T02:01:43.670Z,100259.17
2023-04-19T02:02:06.581Z,100258.98
2023-04-19T02:02:29.808Z,100259.14
2023-04-19T02:02:51.663Z,100259.26
2023-04-19T02:03:13.665Z,100258.55
2023-04-19T02:03:40.425Z,100257.02
2023-04-19T02:04:02.718Z,100256.59
2023-04-19T02:04:26.740Z,100257.21
2023-04-19T02:04:48.377Z,100255.89
2023-04-19T02:05:10.973Z,100255.61
2023-04-19T02:05:33.082Z,100257.67
2023-04-19T02:05:54.950Z,100252.73
2023-04-19T02:06:17.778Z,100254.44
2023-04-19T02:06:39.637Z,100247.86
2023-04-19T02:07:01.224Z,100248.69
2023-04-19T02:07:24.239Z,100250.21
2023-04-19T02:07:46.026Z,100249.13
2023-04-19T02:08:07.719Z,100249.91
2023-04-19T02:08:29.588Z,100247.61
2023-04-19T02:08:51.374Z,100246.66
2023-04-19T02:09:14.014Z,100248.88
2023-04-19T02:09:37.627Z,100248.98
2023-04-19T02:09:59.714Z,100247.65
2023-04-19T02:10:21.684Z,100248.11
2023-04-19T02:10:43.474Z,100247.79
2023-04-19T02:11:08.330Z,100247.00
2023-04-19T02:11:30.365Z,100244.64
2023-04-19T02:11:51.996Z,100243.11
2023-04-19T02:12:13.990Z,100244.42
2023-04-19T02:12:39.763Z,100242.05
2023-04-19T02:13:01.542Z,100239.66
2023-04-19T02:13:23.631Z,100240.39
2023-04-19T02:13:45.420Z,100237.70
2023-04-19T02:14:07.098Z,100236.10
2023-04-19T02:14:28.890Z,100237.64
2023-04-19T02:14:50.596Z,100238.06
2023-04-19T02:15:12.289Z,100233.73
2023-04-19T02:15:36.177Z,100238.07
2023-04-19T02:15:58.309Z,100235.52
2023-04-19T02:16:19.947Z,100236.50
2023-04-19T02:16:41.927Z,100237.33
2023-04-19T02:17:03.830Z,100234.88
2023-04-19T02:17:26.570Z,100233.05
2023-04-19T02:17:48.336Z,100234.52
2023-04-19T02:18:11.234Z,100237.83
2023-04-19T02:18:42.729Z,100234.77
2023-04-19T02:19:04.321Z,100238.93
2023-04-19T02:19:26.344Z,100236.55
2023-04-19T02:19:48.120Z,100233.65
2023-04-19T02:20:10.385Z,100237.61
2023-04-19T02:20:32.264Z,100234.15
2023-04-19T02:20:53.950Z,100232.45
2023-04-19T02:21:16.343Z,100233.24
2023-04-19T02:21:38.131Z,100235.81
2023-04-19T02:21:59.908Z,100234.81
2023-04-19T02:22:47.479Z,100235.23
2023-04-19T02:23:09.355Z,100233.58
2023-04-19T02:23:30.996Z,100235.73
2023-04-19T02:23:52.624Z,100237.80
2023-04-19T02:24:14.493Z,100237.90
2023-04-19T02:24:37.639Z,100236.56
2023-04-19T02:25:00.344Z,100240.14
2023-04-19T02:25:24.770Z,100237.23
2023-04-19T02:25:46.862Z,100239.05
2023-04-19T02:26:10.904Z,100236.83
2023-04-19T02:26:32.583Z,100242.73
2023-04-19T02:26:54.466Z,100239.17
2023-04-19T02:27:16.453Z,100242.06
2023-04-19T02:27:38.241Z,100242.59
2023-04-19T02:28:00.232Z,100244.19
2023-04-19T02:28:22.117Z,100244.16
2023-04-19T02:28:44.286Z,100246.18
2023-04-19T02:29:07.432Z,100246.77
2023-04-19T02:29:29.135Z,100246.29
2023-04-19T02:29:51.094Z,100245.25
2023-04-19T02:30:13.195Z,100247.48
2023-04-19T02:30:35.989Z,100251.86
2023-04-19T02:30:57.979Z,100247.64
2023-04-19T02:31:19.827Z,100248.04
2023-04-19T02:31:41.856Z,100248.81
2023-04-19T02:32:05.775Z,100250.60
2023-04-19T02:32:27.513Z,100249.02
2023-04-19T02:32:49.488Z,100253.02
2023-04-19T02:33:12.028Z,100250.67
2023-04-19T02:33:33.745Z,100251.23
2023-04-19T02:33:55.472Z,100251.58
2023-04-19T02:34:18.287Z,100251.06
2023-04-19T02:34:40.208Z,100250.54
2023-04-19T02:35:03.744Z,100253.23
2023-04-19T02:35:25.429Z,100252.23
2023-04-19T02:35:47.222Z,100254.02
2023-04-19T02:36:08.993Z,100255.48
2023-04-19T02:36:31.415Z,100253.95
2023-04-19T02:36:52.973Z,100254.33
2023-04-19T02:37:15.796Z,100253.81
2023-04-19T02:37:37.565Z,100251.36
2023-04-19T02:38:02.215Z,100256.30
2023-04-19T02:38:24.516Z,100255.51
2023-04-19T02:38:48.850Z,100255.88
2023-04-19T02:39:10.536Z,100255.42
2023-04-19T02:39:33.850Z,100253.88
2023-04-19T02:39:55.532Z,100255.71
2023-04-19T02:40:17.422Z,100254.04
2023-04-19T02:40:39.139Z,100256.08
2023-04-19T02:41:03.752Z,100254.35
2023-04-19T02:41:26.089Z,100259.04
2023-04-19T02:41:47.932Z,100258.27
2023-04-19T02:42:09.569Z,100259.25
2023-04-19T02:42:31.713Z,100256.95
2023-04-19T02:42:53.695Z,100257.63
2023-04-19T02:43:16.300Z,100260.88
2023-04-19T02:43:38.399Z,100260.65
2023-04-19T02:44:00.081Z,100261.89
2023-04-19T02:44:21.856Z,100259.28
2023-04-19T02:44:43.538Z,100260.54
2023-04-19T02:45:05.738Z,100263.55
2023-04-19T02:45:27.721Z,100262.11
2023-04-19T02:45:50.746Z,100261.86
2023-04-19T02:46:12.770Z,100262.58
2023-04-19T02:46:34.761Z,100263.14
2023-04-19T02:46:57.214Z,100265.90
2023-04-19T02:47:18.893Z,100267.27
2023-04-19T02:47:40.910Z,100267.09
2023-04-19T02:48:02.954Z,100266.01
2023-04-19T02:48:24.862Z,100265.04
2023-04-19T02:48:47.465Z,100264.38
2023-04-19T02:49:09.581Z,100265.14
2023-04-19T02:49:36.466Z,100264.14
2023-04-19T02:49:59.103Z,100262.11
2023-04-19T02:50:21.046Z,100262.85
2023-04-19T02:50:44.160Z,100264.71
2023-04-19T02:51:05.941Z,100266.57
2023-04-19T02:51:28.388Z,100266.10
2023-04-19T02:51:50.531Z,100266.86
2023-04-19T02:52:12.217Z,100267.45
2023-04-19T02:52:34.825Z,100269.09
2023-04-19T02:52:57.040Z,100268.12
2023-04-19T02:53:18.907Z,100270.96
2023-04-19T02:53:42.019Z,100270.67
2023-04-19T02:54:03.802Z,100272.32
2023-04-19T02:54:26.096Z,100271.20
2023-04-19T02:54:47.983Z,100273.39
2023-04-19T02:55:09.662Z,100272.20
2023-04-19T02:55:32.908Z,100275.45
2023-04-19T02:56:08.880Z,100277.11
2023-04-19T02:56:30.816Z,100276.53
2023-04-19T02:56:52.656Z,100279.02
2023-04-19T02:57:14.340Z,100276.27
2023-04-19T02:57:36.733Z,100276.93
2023-04-19T02:57:59.481Z,100276.14
2023-04-19T02:58:21.322Z,100276.66
2023-04-19T02:58:57.428Z,100276.66
2023-04-19T02:59:19.108Z,100280.85
2023-04-19T02:59:41.303Z,100277.20
2023-04-19T03:00:05.312Z,100276.07
2023-04-19T03:00:28.290Z,100273.38
2023-04-19T03:00:57.906Z,100275.84
2023-04-19T03:01:19.832Z,100280.09
2023-04-19T03:01:41.948Z,100281.16
2023-04-19T03:02:04.002Z,100280.40
2023-04-19T03:02:26.456Z,100281.30
2023-04-19T03:02:48.392Z,100279.54
2023-04-19T03:03:10.846Z,100283.06
2023-04-19T03:03:58.399Z,100285.66
2023-04-19T03:04:21.591Z,100284.45
2023-04-19T03:04:43.530Z,100283.70
2023-04-19T03:05:06.430Z,100281.93
2023-04-19T03:05:28.224Z,100284.09
2023-04-19T03:05:50.031Z,100281.91
2023-04-19T03:06:12.809Z,100280.90
2023-04-19T03:06:35.820Z,100278.78
2023-04-19T03:06:57.913Z,100277.02
2023-04-19T03:07:20.001Z,100279.11
2023-04-19T03:07:44.321Z,100277.52
2023-04-19T03:08:06.746Z,100275.00
2023-04-19T03:08:28.835Z,100276.89
2023-04-19T03:08:50.562Z,100275.30
2023-04-19T03:09:13.025Z,100272.29
2023-04-19T03:09:34.718Z,100270.85
2023-04-19T03:09:56.695Z,100270.33
2023-04-19T03:10:18.680Z,100265.79
2023-04-19T03:10:40.366Z,100267.30
2023-04-19T03:11:03.987Z,100269.10
2023-04-19T03:11:26.285Z,100268.96
2023-04-19T03:11:49.905Z,100267.55
2023-04-19T03:12:11.894Z,100266.67
2023-04-19T03:12:34.906Z,100266.84
2023-04-19T03:12:56.693Z,100269.22
2023-04-19T03:13:18.421Z,100265.54
2023-04-19T03:13:40.365Z,100263.75
2023-04-19T03:14:02.255Z,100265.58
2023-04-19T03:14:24.253Z,100266.44
2023-04-19T03:14:46.019Z,100265.58
2023-04-19T03:15:08.321Z,100264.48
2023-04-19T03:15:30.818Z,100265.61
2023-04-19T03:15:52.886Z,100266.27
2023-04-19T03:16:16.703Z,100266.35
2023-04-19T03:16:38.626Z,100264.70
2023-04-19T03:17:00.616Z,100262.53
2023-04-19T03:17:22.320Z,100267.84
2023-04-19T03:17:44.249Z,100268.22
2023-04-19T03:18:06.174Z,100265.45
2023-04-19T03:18:29.184Z,100269.39
2023-04-19T03:18:51.427Z,100269.89
2023-04-19T03:19:15.618Z,100269.34
2023-04-19T03:19:42.266Z,100269.16
2023-04-19T03:20:09.307Z,100266.71
2023-04-19T03:20:31.038Z,100270.39
2023-04-19T03:20:52.794Z,100269.09
2023-04-19T03:21:15.071Z,100269.28
2023-04-19T03:21:43.715Z,100268.48
2023-04-19T03:22:06.168Z,100269.91
2023-04-19T03:22:28.300Z,100267.95
2023-04-19T03:22:50.817Z,100266.38
2023-04-19T03:23:12.481Z,100265.08
2023-04-19T03:23:34.673Z,100265.85
2023-04-19T03:23:56.769Z,100265.38
2023-04-19T03:24:19.781Z,100265.64
2023-04-19T03:24:44.426Z,100269.81
2023-04-19T03:25:17.050Z,100269.39
2023-04-19T03:25:41.128Z,100267.44
2023-04-19T03:26:24.043Z,100268.06
2023-04-19T03:26:48.074Z,100265.53
2023-04-19T03:27:10.477Z,100265.58
2023-04-19T03:27:34.201Z,100267.87
2023-04-19T03:27:56.295Z,100268.45
2023-04-19T03:28:31.910Z,100267.73
2023-04-19T03:29:07.892Z,100268.85
2023-04-19T03:29:36.517Z,100266.94
2023-04-19T03:30:01.882Z,100266.80
2023-04-19T03:30:24.571Z,100265.64
2023-04-19T03:30:46.581Z,100266.93
2023-04-19T03:31:08.232Z,100264.58
2023-04-19T03:31:30.768Z,100264.14
2023-04-19T03:31:53.174Z,100261.33
2023-04-19T03:32:15.145Z,100261.26
2023-04-19T03:32:37.339Z,100262.77
2023-04-19T03:33:00.423Z,100262.41
2023-04-19T03:33:22.299Z,100259.63
2023-04-19T03:33:44.641Z,100261.83
2023-04-19T03:34:06.733Z,100258.97
2023-04-19T03:34:33.749Z,100257.61
2023-04-19T03:34:56.226Z,100261.92
2023-04-19T03:35:18.025Z,100260.56
2023-04-19T03:35:39.796Z,100259.37
2023-04-19T03:36:06.592Z,100261.66
2023-04-19T03:36:53.850Z,100259.07
2023-04-19T03:37:15.745Z,100263.55
2023-04-19T03:37:37.634Z,100262.52
2023-04-19T03:38:00.018Z,100263.77
2023-04-19T03:38:21.906Z,100265.27
2023-04-19T03:38:43.933Z,100261.09
2023-04-19T03:39:10.656Z,100268.92
2023-04-19T03:39:58.215Z,100269.15
2023-04-19T03:40:24.423Z,100265.88
2023-04-19T03:40:47.142Z,100270.81
2023-04-19T03:41:21.803Z,100268.55
2023-04-19T03:41:46.344Z,100269.38
2023-04-19T03:42:15.906Z,100270.38
2023-04-19T03:42:51.499Z,100267.33
2023-04-19T03:43:25.347Z,100267.10
2023-04-19T03:43:47.031Z,100266.95
2023-04-19T03:44:08.922Z,100268.67
2023-04-19T03:44:31.230Z,100270.41
2023-04-19T03:44:52.823Z,100268.86
2023-04-19T03:45:14.779Z,100269.53
2023-04-19T03:45:40.153Z,100269.48
2023-04-19T03:46:01.948Z,100272.27
2023-04-19T03:46:24.316Z,100270.42
2023-04-19T03:46:48.089Z,100272.84
2023-04-19T03:47:11.987Z,100268.20
2023-04-19T03:47:37.830Z,100270.68
2023-04-19T03:48:02.604Z,100271.32
2023-04-19T03:48:25.219Z,100269.23
2023-04-19T03:48:47.102Z,100270.69
2023-04-19T03:49:08.889Z,100270.45
2023-04-19T03:49:31.994Z,100270.33
2023-04-19T03:49:59.101Z,100271.21
2023-04-19T03:50:22.116Z,100270.20
2023-04-19T03:50:45.429Z,100271.25
2023-04-19T03:51:08.358Z,100271.38
2023-04-19T03:51:30.973Z,100269.36
2023-04-19T03:51:52.732Z,100270.25
2023-04-19T03:52:14.616Z,100269.03
2023-04-19T03:52:36.401Z,100270.27
2023-04-19T03:52:58.309Z,100270.28
2023-04-19T03:53:20.281Z,100269.04
2023-04-19T03:53:42.061Z,100269.48
2023-04-19T03:54:03.746Z,100267.60
2023-04-19T03:54:25.832Z,100269.53
2023-04-19T03:54:48.336Z,100269.13
2023-04-19T03:55:19.731Z,100268.73
2023-04-19T03:55:41.634Z,100266.55
2023-04-19T03:56:03.448Z,100264.11
2023-04-19T03:56:26.867Z,100264.71
2023-04-19T03:56:48.839Z,100262.73
2023-04-19T03:57:12.679Z,100265.95
2023-04-19T03:57:34.430Z,100264.85
2023-04-19T03:57:58.870Z,100261.66
2023-04-19T03:58:29.161Z,100260.51
2023-04-19T03:58:57.166Z,100261.10
2023-04-19T03:59:18.952Z,100260.44
2023-04-19T03:59:40.840Z,100260.08
2023-04-19T04:00:07.178Z,100259.77
2023-04-19T04:00:36.372Z,100256.66
2023-04-19T04:00:58.402Z,100254.16
2023-04-19T04:01:20.728Z,100256.11
2023-04-19T04:01:42.761Z,100255.98
2023-04-19T04:02:05.669Z,100255.48
2023-04-19T04:02:28.466Z,100258.36
2023-04-19T04:02:50.432Z,100260.27
2023-04-19T04:03:12.754Z,100258.56
2023-04-19T04:03:34.988Z,100259.59
2023-04-19T04:03:58.177Z,100262.05
2023-04-19T04:04:20.597Z,100260.66
2023-04-19T04:04:42.807Z,100260.91
2023-04-19T04:05:06.128Z,100264.10
2023-04-19T04:05:28.529Z,100262.41
2023-04-19T04:05:51.069Z,100264.30
2023-04-19T04:06:13.577Z,100265.66
2023-04-19T04:06:35.429Z,100266.33
2023-04-19T04:06:57.052Z,100267.20
2023-04-19T04:07:18.821Z,100268.16
2023-04-19T04:07:40.456Z,100270.05
2023-04-19T04:08:02.207Z,100269.08
2023-04-19T04:08:23.972Z,100269.75
2023-04-19T04:08:45.756Z,100268.15
2023-04-19T04:09:07.724Z,100264.73
2023-04-19T04:09:30.205Z,100264.16
2023-04-19T04:09:52.130Z,100264.27
2023-04-19T04:10:13.822Z,100263.70
2023-04-19T04:10:37.440Z,100263.99
2023-04-19T04:10:59.427Z,100260.19
2023-04-19T04:11:21.827Z,100258.63
2023-04-19T04:11:45.148Z,100256.86
2023-04-19T04:12:07.237Z,100253.73
2023-04-19T04:12:55.305Z,100255.23
2023-04-19T04:13:25.997Z,100255.77
2023-04-19T04:13:57.290Z,100254.84
2023-04-19T04:14:23.167Z,100253.20
2023-04-19T04:14:45.454Z,100254.48
2023-04-19T04:15:07.957Z,100251.85
2023-04-19T04:15:31.409Z,100251.81
2023-04-19T04:15:53.928Z,100251.08
2023-04-19T04:16:15.708Z,100253.99
2023-04-19T04:16:37.815Z,100250.27
2023-04-19T04:16:59.620Z,100251.02
2023-04-19T04:17:21.684Z,100254.48
2023-04-19T04:17:44.237Z,100248.58
2023-04-19T04:18:08.494Z,100249.92
2023-04-19T04:18:31.687Z,100251.69
2023-04-19T04:18:53.613Z,100251.17
2023-04-19T04:19:21.287Z,100249.60
2023-04-19T04:19:42.993Z,100248.52
2023-04-19T04:20:05.262Z,100249.55
2023-04-19T04:20:27.372Z,100247.77
2023-04-19T04:20:53.030Z,100248.60
2023-04-19T04:21:15.887Z,100249.61
2023-04-19T04:21:38.952Z,100246.17
2023-04-19T04:22:01.546Z,100246.17
2023-04-19T04:22:24.458Z,100247.21
2023-04-19T04:22:46.910Z,100247.05
2023-04-19T04:23:10.280Z,100246.69
2023-04-19T04:23:33.842Z,100246.41
2023-04-19T04:23:56.301Z,100248.03
2023-04-19T04:24:48.608Z,100245.67
2023-04-19T04:25:25.491Z,100245.15
2023-04-19T04:25:47.281Z,100245.52
2023-04-19T04:26:13.355Z,100243.96